Terminal Aerodrome Forecast
Issued by NWS Tampa Bay Area, FL

Home | Current Version | Previous Version | Text Only | Print | Product List | Glossary On
Versions: 1 2 3 4 5 6 7 8 9 10 11 12
147
FTUS42 KTBW 182329 AAA
TAFSRQ
TAF AMD
KSRQ 182329Z 1823/1924 34006KT P6SM VCSH SCT120
     FM190400 VRB04KT P6SM FEW150 SCT200
     FM191700 31005KT P6SM SCT200
     FM192300 32008KT P6SM FEW060 SCT150=

USA.gov is the U.S. government's official web portal to all federal, state and local government web resources and services.